Time;durP1;ratioP1;P1;durP2;ratioP2;P2;SDS_P1;SDS_P2;PMS_P1;PMS_P2;Temp;Humidity;BMP_temperature;BMP_pressure;BME280_temperature;BME280_humidity;BME280_pressure;Samples;Min_cycle;Max_cycle;Signal;HPM_P1;HPM_P2
2024/01/04 00:01:28;;;;;;;90.47;52.37;;;;;;;;;;4396050;32;318623;-79
2024/01/04 00:03:55;;;;;;;122.13;63.83;;;;;;;;;;4410397;32;317813;-79
2024/01/04 00:06:22;;;;;;;118.67;59.30;;;;;;;;;;4401237;32;319420;-79
2024/01/04 00:08:48;;;;;;;105.90;58.00;;;;;;;;;;4411512;32;319454;-80
2024/01/04 00:11:15;;;;;;;101.50;57.87;;;;;;;;;;4396051;32;319228;-79
2024/01/04 00:13:43;;;;;;;104.03;57.63;;;;;;;;;;4410513;32;319540;-79
2024/01/04 00:16:15;;;;;;;96.87;56.17;;;;;;;;;;4391217;32;318702;-79
2024/01/04 00:18:41;;;;;;;94.77;53.67;;;;;;;;;;4397664;32;318009;-80
2024/01/04 00:21:13;;;;;;;102.17;58.03;;;;;;;;;;4400204;32;318257;-79
2024/01/04 00:23:40;;;;;;;100.73;60.47;;;;;;;;;;4405870;32;319253;-79
2024/01/04 00:26:07;;;;;;;112.57;61.10;;;;;;;;;;4391548;32;319359;-80
2024/01/04 00:28:35;;;;;;;103.40;58.40;;;;;;;;;;4398459;32;319347;-79
2024/01/04 00:31:02;;;;;;;116.47;59.20;;;;;;;;;;4410706;32;319247;-79
2024/01/04 00:33:30;;;;;;;156.37;76.70;;;;;;;;;;4392440;32;419796;-79
2024/01/04 00:35:57;;;;;;;180.00;80.47;;;;;;;;;;4410269;32;318661;-79
2024/01/04 00:38:24;;;;;;;156.50;73.40;;;;;;;;;;4401246;32;319514;-80
2024/01/04 00:40:51;;;;;;;156.70;70.80;;;;;;;;;;4408503;32;318585;-78
2024/01/04 00:43:19;;;;;;;146.43;68.43;;;;;;;;;;4392310;32;319079;-78
2024/01/04 00:45:46;;;;;;;128.60;64.60;;;;;;;;;;4408680;32;318663;-78
2024/01/04 00:48:13;;;;;;;99.87;56.43;;;;;;;;;;4399700;32;319313;-80
2024/01/04 00:50:42;;;;;;;98.23;55.93;;;;;;;;;;4409190;32;318285;-79
2024/01/04 00:53:10;;;;;;;101.57;58.07;;;;;;;;;;4399962;32;318361;-78
2024/01/04 00:55:36;;;;;;;97.43;56.43;;;;;;;;;;4403140;32;319445;-78
2024/01/04 00:58:07;;;;;;;110.37;56.13;;;;;;;;;;4395543;32;318058;-80
2024/01/04 01:00:36;;;;;;;103.93;57.97;;;;;;;;;;4409266;32;319279;-79
2024/01/04 01:03:03;;;;;;;119.20;66.93;;;;;;;;;;4409645;32;319454;-79
2024/01/04 01:05:29;;;;;;;178.80;89.83;;;;;;;;;;4388608;32;420244;-80
2024/01/04 01:08:01;;;;;;;194.90;100.50;;;;;;;;;;4410445;32;319168;-79
2024/01/04 01:10:29;;;;;;;178.37;96.50;;;;;;;;;;4401476;32;320383;-79
2024/01/04 01:12:57;;;;;;;147.77;77.17;;;;;;;;;;4408600;32;319194;-79
2024/01/04 01:15:27;;;;;;;143.47;79.43;;;;;;;;;;4372054;32;319216;-79
2024/01/04 01:17:54;;;;;;;190.03;100.23;;;;;;;;;;4407478;32;318109;-80
2024/01/04 01:20:20;;;;;;;122.50;71.13;;;;;;;;;;4400744;32;319480;-79
2024/01/04 01:22:46;;;;;;;107.60;68.03;;;;;;;;;;4408605;32;318665;-80
2024/01/04 01:25:15;;;;;;;120.83;67.97;;;;;;;;;;4400561;32;319339;-80
2024/01/04 01:27:42;;;;;;;114.10;66.80;;;;;;;;;;4405457;32;318618;-78
2024/01/04 01:30:11;;;;;;;104.70;59.50;;;;;;;;;;4399527;32;319252;-79
2024/01/04 01:32:40;;;;;;;105.37;61.80;;;;;;;;;;4409682;32;319308;-79
2024/01/04 01:35:08;;;;;;;101.23;60.73;;;;;;;;;;4400758;32;319102;-79
2024/01/04 01:37:36;;;;;;;102.97;62.43;;;;;;;;;;4400445;32;319223;-79
2024/01/04 01:40:02;;;;;;;104.33;58.23;;;;;;;;;;4410977;32;319208;-79
2024/01/04 01:42:31;;;;;;;111.73;63.60;;;;;;;;;;4398665;32;418197;-79
2024/01/04 01:45:00;;;;;;;94.57;61.60;;;;;;;;;;4410811;32;318777;-80
2024/01/04 01:47:27;;;;;;;105.30;64.23;;;;;;;;;;4389498;32;318113;-78
2024/01/04 01:49:54;;;;;;;115.73;64.17;;;;;;;;;;4418748;32;319150;-78
2024/01/04 01:52:22;;;;;;;108.27;60.47;;;;;;;;;;4412415;32;319107;-79
2024/01/04 01:54:50;;;;;;;129.00;60.97;;;;;;;;;;4422917;32;319121;-78
2024/01/04 01:57:18;;;;;;;106.73;59.27;;;;;;;;;;4407279;32;318469;-79
2024/01/04 01:59:48;;;;;;;115.47;62.97;;;;;;;;;;4426307;32;317508;-79
2024/01/04 02:02:16;;;;;;;106.27;57.27;;;;;;;;;;4413518;32;318524;-79
2024/01/04 02:04:44;;;;;;;108.90;56.87;;;;;;;;;;4425494;32;318771;-79
2024/01/04 02:07:11;;;;;;;111.30;60.97;;;;;;;;;;4414520;32;330655;-79
2024/01/04 02:09:39;;;;;;;128.20;61.63;;;;;;;;;;4410722;32;330233;-79
2024/01/04 02:12:07;;;;;;;107.17;58.60;;;;;;;;;;4395643;32;319419;-78
2024/01/04 02:14:35;;;;;;;112.80;58.73;;;;;;;;;;4419256;32;319127;-79
2024/01/04 02:17:05;;;;;;;121.80;60.20;;;;;;;;;;4419181;32;347723;-79
2024/01/04 02:19:33;;;;;;;123.60;61.43;;;;;;;;;;4401404;32;418428;-79
2024/01/04 02:22:02;;;;;;;116.27;55.97;;;;;;;;;;4422974;32;318391;-79
2024/01/04 02:24:33;;;;;;;113.37;54.63;;;;;;;;;;4409688;32;418131;-79
2024/01/04 02:27:01;;;;;;;107.80;53.80;;;;;;;;;;4435888;32;317384;-79
2024/01/04 02:29:27;;;;;;;107.07;53.90;;;;;;;;;;4416272;32;318317;-79
2024/01/04 02:31:55;;;;;;;124.53;56.87;;;;;;;;;;4413342;32;319246;-78
2024/01/04 02:34:24;;;;;;;124.57;59.50;;;;;;;;;;4394640;32;319350;-78
2024/01/04 02:36:51;;;;;;;121.73;58.17;;;;;;;;;;4389719;32;319376;-80
2024/01/04 02:39:18;;;;;;;122.20;61.20;;;;;;;;;;4377096;32;319567;-79
2024/01/04 02:41:48;;;;;;;124.23;61.30;;;;;;;;;;4386943;32;319180;-79
2024/01/04 02:44:15;;;;;;;113.43;55.07;;;;;;;;;;4383163;32;318434;-79
2024/01/04 02:46:42;;;;;;;120.60;57.20;;;;;;;;;;4391941;32;318627;-79
2024/01/04 02:49:09;;;;;;;112.07;56.03;;;;;;;;;;4383655;32;319082;-78
2024/01/04 02:51:36;;;;;;;115.90;57.90;;;;;;;;;;4381586;32;319321;-79
2024/01/04 02:54:04;;;;;;;129.13;62.07;;;;;;;;;;4392054;32;319388;-77
2024/01/04 02:56:30;;;;;;;112.67;56.93;;;;;;;;;;4358908;32;419670;-79
2024/01/04 02:58:58;;;;;;;115.23;55.90;;;;;;;;;;4391380;32;319389;-79
2024/01/04 03:01:29;;;;;;;120.63;58.27;;;;;;;;;;4384242;32;319519;-79
2024/01/04 03:03:57;;;;;;;114.83;59.87;;;;;;;;;;4407875;32;319338;-79
2024/01/04 03:06:25;;;;;;;117.17;58.33;;;;;;;;;;4397235;32;320241;-79
2024/01/04 03:08:53;;;;;;;146.20;75.17;;;;;;;;;;4388613;32;359523;-79
2024/01/04 03:11:20;;;;;;;183.70;87.83;;;;;;;;;;4377115;32;318786;-79
2024/01/04 03:13:47;;;;;;;158.10;79.20;;;;;;;;;;4406018;32;318951;-79
2024/01/04 03:16:20;;;;;;;182.33;87.23;;;;;;;;;;4402374;32;319330;-80
2024/01/04 03:18:48;;;;;;;115.43;59.67;;;;;;;;;;4415534;32;319155;-79
2024/01/04 03:21:16;;;;;;;132.10;66.30;;;;;;;;;;4413181;32;318379;-79
2024/01/04 03:23:46;;;;;;;115.07;58.00;;;;;;;;;;4421708;32;319173;-79
2024/01/04 03:26:15;;;;;;;127.40;60.20;;;;;;;;;;4403109;32;318270;-79
2024/01/04 03:28:42;;;;;;;102.77;54.60;;;;;;;;;;4403354;32;318571;-79
2024/01/04 03:31:08;;;;;;;92.77;50.00;;;;;;;;;;4398462;32;318521;-79
2024/01/04 03:33:36;;;;;;;99.83;52.77;;;;;;;;;;4392335;32;318211;-79
2024/01/04 03:36:03;;;;;;;100.00;54.53;;;;;;;;;;4395575;32;318540;-79
2024/01/04 03:38:30;;;;;;;112.33;60.70;;;;;;;;;;4381276;32;419998;-79
2024/01/04 03:40:58;;;;;;;119.40;61.27;;;;;;;;;;4394963;32;319336;-79
2024/01/04 03:43:24;;;;;;;97.20;57.17;;;;;;;;;;4379885;32;319316;-79
2024/01/04 03:45:51;;;;;;;120.67;61.67;;;;;;;;;;4397316;32;318541;-78
2024/01/04 03:48:19;;;;;;;116.63;63.67;;;;;;;;;;4394307;32;358920;-79
2024/01/04 03:50:48;;;;;;;88.00;50.93;;;;;;;;;;4402793;32;319351;-79
2024/01/04 03:53:17;;;;;;;100.07;54.97;;;;;;;;;;4385630;32;318138;-79
2024/01/04 03:55:43;;;;;;;96.23;53.87;;;;;;;;;;4397218;32;318731;-79
2024/01/04 03:58:10;;;;;;;119.93;57.80;;;;;;;;;;4388206;32;318407;-79
2024/01/04 04:00:37;;;;;;;116.00;57.17;;;;;;;;;;4397334;32;319199;-79
2024/01/04 04:03:04;;;;;;;134.30;57.50;;;;;;;;;;4384574;32;319466;-79
2024/01/04 04:05:31;;;;;;;111.43;55.57;;;;;;;;;;4390411;32;320092;-80
2024/01/04 04:08:00;;;;;;;120.43;59.73;;;;;;;;;;4391792;32;319659;-78
2024/01/04 04:10:28;;;;;;;125.27;57.83;;;;;;;;;;4391294;32;319334;-78
2024/01/04 04:12:57;;;;;;;126.83;58.00;;;;;;;;;;4402476;32;318464;-78
2024/01/04 04:15:24;;;;;;;134.23;58.83;;;;;;;;;;4385162;32;350322;-81
2024/01/04 04:17:51;;;;;;;117.80;54.77;;;;;;;;;;4405975;32;319124;-78
2024/01/04 04:20:19;;;;;;;112.47;52.03;;;;;;;;;;4405391;32;319236;-79
2024/01/04 04:22:46;;;;;;;126.67;55.30;;;;;;;;;;4408438;32;319240;-81
2024/01/04 04:25:14;;;;;;;119.47;54.87;;;;;;;;;;4399780;32;319364;-78
2024/01/04 04:27:41;;;;;;;106.77;55.57;;;;;;;;;;4407019;32;319469;-79
2024/01/04 04:30:10;;;;;;;106.50;52.23;;;;;;;;;;4397207;32;319283;-78
2024/01/04 04:32:37;;;;;;;136.90;58.93;;;;;;;;;;4407514;32;319344;-78
2024/01/04 04:35:04;;;;;;;118.10;59.37;;;;;;;;;;4398797;32;319249;-79
2024/01/04 04:37:31;;;;;;;151.17;60.87;;;;;;;;;;4402225;32;319196;-79
2024/01/04 04:39:57;;;;;;;125.70;59.43;;;;;;;;;;4409295;32;319181;-79
2024/01/04 04:42:26;;;;;;;141.90;59.57;;;;;;;;;;4398953;32;319293;-79
2024/01/04 04:44:53;;;;;;;123.80;56.97;;;;;;;;;;4410526;32;319229;-80
2024/01/04 04:47:19;;;;;;;129.00;58.50;;;;;;;;;;4392849;32;320018;-78
2024/01/04 04:49:47;;;;;;;150.93;71.63;;;;;;;;;;4406310;32;319138;-80
2024/01/04 04:52:14;;;;;;;130.90;65.07;;;;;;;;;;4398010;32;339869;-79
2024/01/04 04:54:42;;;;;;;131.70;59.13;;;;;;;;;;4407099;32;319318;-80
2024/01/04 04:57:09;;;;;;;122.30;59.10;;;;;;;;;;4385430;32;319453;-79
2024/01/04 04:59:39;;;;;;;127.07;60.90;;;;;;;;;;4386531;32;319352;-77
2024/01/04 05:02:08;;;;;;;152.43;64.80;;;;;;;;;;4383688;32;319465;-80
2024/01/04 05:04:35;;;;;;;139.77;62.30;;;;;;;;;;4391770;32;318869;-80
2024/01/04 05:07:02;;;;;;;127.30;65.13;;;;;;;;;;4391046;32;319458;-79
2024/01/04 05:09:29;;;;;;;134.63;62.40;;;;;;;;;;4371035;32;419826;-79
2024/01/04 05:11:55;;;;;;;130.80;63.43;;;;;;;;;;4394156;32;319429;-79
2024/01/04 05:14:22;;;;;;;106.30;56.27;;;;;;;;;;4383183;32;319435;-79
2024/01/04 05:16:52;;;;;;;109.53;61.73;;;;;;;;;;4390296;32;319479;-79
2024/01/04 05:19:20;;;;;;;118.30;60.33;;;;;;;;;;4362210;32;319343;-79
2024/01/04 05:21:46;;;;;;;112.17;58.93;;;;;;;;;;4375159;32;319249;-79
2024/01/04 05:24:13;;;;;;;114.53;59.07;;;;;;;;;;4368341;32;326476;-79
2024/01/04 05:26:40;;;;;;;112.53;62.20;;;;;;;;;;4379210;32;319579;-79
2024/01/04 05:29:07;;;;;;;137.73;71.50;;;;;;;;;;4369402;32;319427;-79
2024/01/04 05:31:35;;;;;;;159.37;80.13;;;;;;;;;;4370979;32;319320;-81
2024/01/04 05:34:03;;;;;;;190.07;89.50;;;;;;;;;;4393043;32;318699;-79
2024/01/04 05:36:31;;;;;;;188.57;81.33;;;;;;;;;;4372313;32;420171;-79
2024/01/04 05:38:58;;;;;;;140.33;71.80;;;;;;;;;;4377332;32;319387;-79
2024/01/04 05:41:25;;;;;;;144.00;70.13;;;;;;;;;;4359487;32;351441;-78
2024/01/04 05:43:52;;;;;;;126.30;65.70;;;;;;;;;;4378828;32;319345;-78
2024/01/04 05:46:18;;;;;;;125.33;66.23;;;;;;;;;;4365881;32;319534;-79
2024/01/04 05:48:47;;;;;;;149.07;68.87;;;;;;;;;;4375076;32;319324;-79
2024/01/04 05:51:15;;;;;;;163.67;70.83;;;;;;;;;;4365374;32;319341;-80
2024/01/04 05:53:43;;;;;;;147.40;61.30;;;;;;;;;;4378276;32;318978;-79
2024/01/04 05:56:11;;;;;;;127.60;67.03;;;;;;;;;;4377209;32;319055;-79
2024/01/04 05:58:41;;;;;;;139.37;68.13;;;;;;;;;;4391989;32;326159;-78
2024/01/04 06:01:08;;;;;;;159.40;68.20;;;;;;;;;;4382192;32;319314;-78
2024/01/04 06:03:35;;;;;;;153.13;66.03;;;;;;;;;;4384127;32;319186;-79
2024/01/04 06:06:01;;;;;;;134.73;63.50;;;;;;;;;;4390903;32;319429;-79
2024/01/04 06:08:32;;;;;;;134.70;64.90;;;;;;;;;;4382712;32;321169;-79
2024/01/04 06:11:02;;;;;;;122.00;54.13;;;;;;;;;;4389982;32;319357;-80
2024/01/04 06:13:31;;;;;;;127.03;51.73;;;;;;;;;;4370514;32;414172;-78
2024/01/04 06:15:59;;;;;;;104.60;51.87;;;;;;;;;;4390791;32;318445;-79
2024/01/04 06:18:26;;;;;;;109.97;50.73;;;;;;;;;;4383947;32;319387;-79
2024/01/04 06:20:54;;;;;;;108.67;50.37;;;;;;;;;;4392186;32;319078;-78
2024/01/04 06:23:20;;;;;;;101.87;52.13;;;;;;;;;;4375845;32;319324;-79
2024/01/04 06:26:00;;;;;;;130.63;56.40;;;;;;;;;;4393750;32;319453;-79
2024/01/04 06:28:27;;;;;;;114.10;54.73;;;;;;;;;;4383467;32;319322;-79
2024/01/04 06:30:55;;;;;;;116.87;58.40;;;;;;;;;;4389064;32;319202;-77
2024/01/04 06:33:23;;;;;;;133.43;69.80;;;;;;;;;;4370148;32;319188;-79
2024/01/04 06:35:50;;;;;;;139.10;71.97;;;;;;;;;;4388788;32;319514;-80
2024/01/04 06:38:16;;;;;;;136.53;72.00;;;;;;;;;;4370236;32;319091;-79
2024/01/04 06:40:44;;;;;;;142.33;71.90;;;;;;;;;;4379359;32;319056;-79
2024/01/04 06:43:16;;;;;;;164.07;78.30;;;;;;;;;;4366904;32;339132;-80
2024/01/04 06:45:44;;;;;;;152.67;78.07;;;;;;;;;;4379077;32;319547;-79
2024/01/04 06:48:13;;;;;;;187.47;92.23;;;;;;;;;;4372294;32;319908;-79
2024/01/04 06:50:39;;;;;;;185.23;89.03;;;;;;;;;;4381345;32;319428;-79
2024/01/04 06:53:06;;;;;;;213.80;104.50;;;;;;;;;;4367944;32;332180;-79
2024/01/04 06:55:34;;;;;;;171.87;88.67;;;;;;;;;;4372673;32;319413;-78
2024/01/04 06:58:04;;;;;;;172.60;84.67;;;;;;;;;;4380951;32;319142;-79
2024/01/04 07:00:34;;;;;;;163.43;82.23;;;;;;;;;;4366881;32;418332;-79
2024/01/04 07:03:01;;;;;;;155.63;83.77;;;;;;;;;;4382217;32;319123;-80
2024/01/04 07:05:28;;;;;;;163.63;88.73;;;;;;;;;;4365899;32;319358;-79
2024/01/04 07:07:56;;;;;;;174.17;87.57;;;;;;;;;;4391672;32;318749;-80
2024/01/04 07:10:26;;;;;;;164.87;89.50;;;;;;;;;;4379306;32;318300;-79
2024/01/04 07:12:54;;;;;;;157.23;86.73;;;;;;;;;;4396899;32;319538;-79
2024/01/04 07:15:21;;;;;;;170.87;93.67;;;;;;;;;;4380694;32;319126;-80
2024/01/04 07:17:50;;;;;;;193.33;99.83;;;;;;;;;;4388586;32;318420;-79
2024/01/04 07:20:16;;;;;;;167.17;93.07;;;;;;;;;;4382880;32;348643;-79
2024/01/04 07:22:43;;;;;;;172.37;96.73;;;;;;;;;;4395286;32;319319;-78
2024/01/04 07:25:10;;;;;;;176.90;95.77;;;;;;;;;;4385389;32;319283;-80
2024/01/04 07:27:36;;;;;;;175.67;97.57;;;;;;;;;;4383153;32;319433;-77
2024/01/04 07:30:04;;;;;;;174.23;86.83;;;;;;;;;;4394302;32;319218;-79
2024/01/04 07:32:32;;;;;;;181.50;90.27;;;;;;;;;;4365234;32;419888;-80
2024/01/04 07:35:01;;;;;;;186.63;89.33;;;;;;;;;;4381717;32;342918;-79
2024/01/04 07:37:29;;;;;;;176.93;90.47;;;;;;;;;;4380034;32;319285;-79
2024/01/04 07:39:56;;;;;;;199.80;93.20;;;;;;;;;;4395367;32;319379;-80
2024/01/04 07:42:22;;;;;;;180.50;92.93;;;;;;;;;;4386432;32;319589;-80
2024/01/04 07:44:51;;;;;;;199.23;96.27;;;;;;;;;;4396783;32;329568;-79
2024/01/04 07:47:19;;;;;;;185.80;96.47;;;;;;;;;;4380753;32;319329;-78
2024/01/04 07:49:46;;;;;;;184.60;94.60;;;;;;;;;;4390911;32;319430;-79
2024/01/04 07:52:14;;;;;;;200.33;106.53;;;;;;;;;;4383918;32;319184;-80
2024/01/04 07:54:41;;;;;;;246.00;133.53;;;;;;;;;;4394390;32;320730;-79
2024/01/04 07:57:09;;;;;;;202.87;109.80;;;;;;;;;;4383035;32;320434;-79
2024/01/04 07:59:36;;;;;;;199.63;102.10;;;;;;;;;;4387088;32;320576;-79
2024/01/04 08:02:03;;;;;;;203.07;100.90;;;;;;;;;;4395224;32;320264;-80
2024/01/04 08:04:32;;;;;;;213.87;102.50;;;;;;;;;;4386453;32;421208;-78
2024/01/04 08:07:00;;;;;;;223.43;113.20;;;;;;;;;;4382361;32;320464;-78
2024/01/04 08:09:28;;;;;;;241.03;116.03;;;;;;;;;;4361178;32;329293;-79
2024/01/04 08:11:54;;;;;;;259.97;126.53;;;;;;;;;;4380059;32;320392;-79
2024/01/04 08:14:21;;;;;;;233.53;121.67;;;;;;;;;;4372549;32;320542;-79
2024/01/04 08:16:49;;;;;;;243.00;117.00;;;;;;;;;;4381556;32;320089;-79
2024/01/04 08:19:15;;;;;;;202.80;105.27;;;;;;;;;;4363761;32;320486;-78
2024/01/04 08:21:42;;;;;;;173.33;90.70;;;;;;;;;;4378772;32;320811;-79
2024/01/04 08:24:12;;;;;;;167.87;80.20;;;;;;;;;;4372832;32;319144;-79
2024/01/04 08:26:42;;;;;;;135.80;75.53;;;;;;;;;;4384547;32;319044;-78
2024/01/04 08:29:09;;;;;;;157.50;78.23;;;;;;;;;;4371400;32;319782;-79
2024/01/04 08:31:36;;;;;;;162.50;76.53;;;;;;;;;;4382753;32;318407;-78
2024/01/04 08:34:03;;;;;;;123.97;63.97;;;;;;;;;;4397118;32;319861;-79
2024/01/04 08:36:32;;;;;;;107.70;59.73;;;;;;;;;;4379537;32;418512;-79
2024/01/04 08:38:59;;;;;;;143.30;76.20;;;;;;;;;;4393703;32;319320;-78
2024/01/04 08:41:26;;;;;;;131.23;66.90;;;;;;;;;;4376766;32;354033;-80
2024/01/04 08:43:57;;;;;;;127.33;62.50;;;;;;;;;;4395427;32;319274;-79
2024/01/04 08:46:23;;;;;;;125.75;60.20;;;;;;;;;;4386734;32;339821;-80
2024/01/04 08:48:50;;;;;;;108.37;55.43;;;;;;;;;;4397292;32;319073;-80
2024/01/04 08:51:18;;;;;;;94.97;54.77;;;;;;;;;;4377432;32;319059;-80
2024/01/04 08:53:46;;;;;;;141.90;74.67;;;;;;;;;;4395782;32;318083;-79
2024/01/04 08:56:14;;;;;;;121.80;68.53;;;;;;;;;;4388335;32;319455;-79
2024/01/04 08:58:40;;;;;;;125.27;66.97;;;;;;;;;;4395339;32;319278;-79
2024/01/04 09:01:09;;;;;;;127.50;68.33;;;;;;;;;;4386901;32;319348;-79
2024/01/04 09:03:37;;;;;;;123.47;66.37;;;;;;;;;;4389673;32;319141;-79
2024/01/04 09:06:06;;;;;;;112.53;63.60;;;;;;;;;;4390949;32;318500;-80
2024/01/04 09:08:35;;;;;;;135.17;73.33;;;;;;;;;;4379202;32;419810;-80
2024/01/04 09:11:03;;;;;;;146.50;78.53;;;;;;;;;;4395960;32;318043;-79
2024/01/04 09:13:30;;;;;;;158.37;81.80;;;;;;;;;;4376391;32;418804;-79
2024/01/04 09:15:58;;;;;;;164.37;88.77;;;;;;;;;;4395694;32;318933;-79
2024/01/04 09:18:27;;;;;;;186.70;98.07;;;;;;;;;;4388095;32;319072;-80
2024/01/04 09:20:54;;;;;;;192.80;100.87;;;;;;;;;;4394866;32;319018;-80
2024/01/04 09:23:21;;;;;;;156.43;90.17;;;;;;;;;;4377436;32;320285;-79
2024/01/04 09:25:48;;;;;;;155.77;87.27;;;;;;;;;;4393118;32;318901;-80
2024/01/04 09:28:16;;;;;;;156.37;86.40;;;;;;;;;;4379329;32;324474;-80
2024/01/04 09:30:45;;;;;;;138.20;82.37;;;;;;;;;;4382750;32;318790;-79
2024/01/04 09:33:15;;;;;;;143.90;81.90;;;;;;;;;;4382393;32;319232;-79
2024/01/04 09:35:45;;;;;;;136.73;78.20;;;;;;;;;;4400131;32;350773;-78
2024/01/04 09:38:12;;;;;;;142.50;80.10;;;;;;;;;;4370949;32;319078;-79
2024/01/04 09:40:38;;;;;;;153.53;85.30;;;;;;;;;;4405161;32;317890;-79
2024/01/04 09:43:05;;;;;;;165.27;89.33;;;;;;;;;;4395669;32;319288;-79
2024/01/04 09:45:36;;;;;;;161.47;93.10;;;;;;;;;;4379834;32;318923;-79
2024/01/04 09:48:08;;;;;;;160.80;93.67;;;;;;;;;;4388967;32;318818;-78
2024/01/04 09:50:37;;;;;;;165.23;94.77;;;;;;;;;;4386433;32;418142;-80
2024/01/04 09:53:09;;;;;;;188.63;104.97;;;;;;;;;;4394662;32;318772;-79
2024/01/04 09:55:38;;;;;;;172.70;98.80;;;;;;;;;;4374072;32;419165;-78
2024/01/04 09:58:09;;;;;;;191.13;110.57;;;;;;;;;;4390452;32;319217;-80
2024/01/04 10:00:36;;;;;;;191.67;108.27;;;;;;;;;;4405785;32;319013;-79
2024/01/04 10:03:06;;;;;;;183.97;104.70;;;;;;;;;;4408999;32;320151;-78
2024/01/04 10:05:35;;;;;;;180.67;103.47;;;;;;;;;;4382485;32;419633;-80
2024/01/04 10:08:12;;;;;;;178.23;102.40;;;;;;;;;;4393099;32;319595;-80
2024/01/04 10:10:41;;;;;;;176.33;101.63;;;;;;;;;;4382157;32;421001;-79
2024/01/04 10:13:10;;;;;;;191.47;111.40;;;;;;;;;;4383515;32;320179;-80
2024/01/04 10:15:37;;;;;;;183.83;109.07;;;;;;;;;;4387475;32;320486;-78
2024/01/04 10:18:09;;;;;;;181.43;109.13;;;;;;;;;;4383050;32;320519;-80
2024/01/04 10:20:36;;;;;;;181.27;106.07;;;;;;;;;;4393101;32;320248;-79
2024/01/04 10:23:07;;;;;;;188.80;109.87;;;;;;;;;;4394063;32;320300;-80
2024/01/04 10:25:37;;;;;;;180.90;109.67;;;;;;;;;;4364697;32;421011;-79
2024/01/04 10:28:04;;;;;;;183.07;105.60;;;;;;;;;;4368664;32;320249;-79
2024/01/04 10:30:31;;;;;;;185.57;105.20;;;;;;;;;;4380197;32;319489;-79
2024/01/04 10:32:59;;;;;;;183.90;113.77;;;;;;;;;;4392170;32;320227;-79
2024/01/04 10:35:29;;;;;;;184.30;111.00;;;;;;;;;;4379115;32;320667;-79
2024/01/04 10:37:58;;;;;;;179.07;105.63;;;;;;;;;;4393121;32;320225;-80
2024/01/04 10:40:26;;;;;;;166.17;102.07;;;;;;;;;;4382743;32;320288;-80
2024/01/04 10:42:55;;;;;;;148.17;94.43;;;;;;;;;;4394728;32;320363;-80
2024/01/04 10:45:27;;;;;;;123.10;71.37;;;;;;;;;;4378977;32;319094;-79
2024/01/04 10:47:55;;;;;;;95.03;58.07;;;;;;;;;;4392594;32;319436;-80
2024/01/04 10:50:24;;;;;;;81.10;50.83;;;;;;;;;;4369436;32;318121;-80
2024/01/04 10:52:54;;;;;;;69.43;45.20;;;;;;;;;;4394743;32;318350;-80
2024/01/04 10:55:22;;;;;;;65.47;42.90;;;;;;;;;;4378711;32;318439;-81
2024/01/04 10:57:50;;;;;;;77.20;46.23;;;;;;;;;;4396443;32;318476;-79
2024/01/04 11:00:19;;;;;;;76.60;48.17;;;;;;;;;;4385250;32;318366;-80
2024/01/04 11:02:48;;;;;;;78.37;47.20;;;;;;;;;;4391970;32;317591;-80
2024/01/04 11:05:20;;;;;;;82.20;51.07;;;;;;;;;;4374826;32;318796;-79
2024/01/04 11:07:49;;;;;;;85.90;55.17;;;;;;;;;;4392546;32;345516;-80
2024/01/04 11:10:16;;;;;;;106.60;64.67;;;;;;;;;;4382686;32;326978;-80
2024/01/04 11:12:49;;;;;;;119.97;74.13;;;;;;;;;;4392566;32;318661;-79
2024/01/04 11:15:18;;;;;;;119.23;72.23;;;;;;;;;;4377260;32;319434;-80
2024/01/04 11:18:01;;;;;;;125.20;75.43;;;;;;;;;;4396361;32;319430;-79
2024/01/04 11:20:51;;;;;;;132.87;80.63;;;;;;;;;;4384299;32;318614;-79
2024/01/04 11:23:43;;;;;;;162.83;94.50;;;;;;;;;;4380816;32;319668;-79
2024/01/04 11:26:49;;;;;;;167.50;96.47;;;;;;;;;;4384858;32;319262;-79
2024/01/04 11:29:18;;;;;;;144.83;89.00;;;;;;;;;;4376093;32;319464;-79
2024/01/04 11:31:49;;;;;;;139.13;84.07;;;;;;;;;;4365023;32;318784;-79
2024/01/04 11:34:17;;;;;;;180.37;104.10;;;;;;;;;;4393297;32;318992;-79
2024/01/04 11:36:43;;;;;;;170.77;100.37;;;;;;;;;;4381427;32;320415;-79
2024/01/04 11:39:11;;;;;;;142.60;86.37;;;;;;;;;;4369459;32;318713;-79
2024/01/04 11:41:39;;;;;;;142.27;87.87;;;;;;;;;;4386215;32;319319;-80
2024/01/04 11:44:16;;;;;;;136.10;87.10;;;;;;;;;;4396652;32;319091;-80
2024/01/04 11:46:43;;;;;;;160.60;98.60;;;;;;;;;;4378927;32;319223;-78
2024/01/04 11:49:13;;;;;;;162.47;94.27;;;;;;;;;;4396644;32;319441;-80
2024/01/04 11:51:48;;;;;;;183.93;113.10;;;;;;;;;;4357715;32;318199;-81
2024/01/04 11:54:17;;;;;;;197.30;129.50;;;;;;;;;;4387628;32;320454;-79
2024/01/04 11:56:44;;;;;;;197.97;134.93;;;;;;;;;;4379659;32;320977;-79
2024/01/04 11:59:11;;;;;;;189.57;127.10;;;;;;;;;;4396567;32;320297;-79
2024/01/04 12:01:41;;;;;;;181.97;120.47;;;;;;;;;;4387126;32;320807;-80
2024/01/04 12:04:09;;;;;;;144.50;92.93;;;;;;;;;;4397200;32;326420;-80
2024/01/04 12:06:41;;;;;;;128.87;82.27;;;;;;;;;;4382077;32;319185;-79
2024/01/04 12:09:10;;;;;;;122.60;76.97;;;;;;;;;;4396642;32;318322;-79
2024/01/04 12:11:40;;;;;;;108.23;67.37;;;;;;;;;;4385751;32;319393;-79
2024/01/04 12:14:08;;;;;;;109.10;69.20;;;;;;;;;;4393357;32;353507;-79
2024/01/04 12:16:35;;;;;;;93.87;61.17;;;;;;;;;;4383992;32;319533;-80
2024/01/04 12:19:03;;;;;;;92.00;59.93;;;;;;;;;;4395532;32;318340;-79
2024/01/04 12:21:32;;;;;;;89.10;59.33;;;;;;;;;;4383936;32;318354;-78
2024/01/04 12:24:02;;;;;;;83.10;54.23;;;;;;;;;;4395784;32;318186;-80
2024/01/04 12:26:29;;;;;;;152.20;92.10;;;;;;;;;;4376443;32;318402;-79
2024/01/04 12:28:59;;;;;;;64.40;39.47;;;;;;;;;;4373805;32;319089;-81
2024/01/04 12:31:26;;;;;;;51.07;34.17;;;;;;;;;;4395283;32;318108;-79
2024/01/04 12:33:54;;;;;;;44.57;29.97;;;;;;;;;;4361810;32;417530;-78
2024/01/04 12:36:22;;;;;;;74.27;40.63;;;;;;;;;;4393184;32;317904;-80
2024/01/04 12:38:50;;;;;;;49.67;29.57;;;;;;;;;;4378806;32;317630;-80
2024/01/04 12:41:30;;;;;;;58.67;38.97;;;;;;;;;;4391054;32;318297;-80
2024/01/04 12:43:57;;;;;;;42.43;27.43;;;;;;;;;;4383525;32;417756;-79
2024/01/04 12:46:24;;;;;;;42.83;25.07;;;;;;;;;;4396823;32;317667;-79
2024/01/04 12:48:53;;;;;;;129.30;70.67;;;;;;;;;;4378584;32;417743;-80
2024/01/04 12:51:27;;;;;;;79.10;42.70;;;;;;;;;;4394550;32;319895;-81
2024/01/04 12:53:53;;;;;;;77.70;48.63;;;;;;;;;;4370660;32;418261;-79
2024/01/04 12:56:21;;;;;;;357.40;228.07;;;;;;;;;;4383981;32;318212;-80
2024/01/04 12:58:50;;;;;;;173.67;98.73;;;;;;;;;;4377237;32;359176;-78
2024/01/04 13:01:17;;;;;;;93.23;56.07;;;;;;;;;;4393012;32;339574;-79
2024/01/04 13:03:44;;;;;;;76.80;44.83;;;;;;;;;;4384716;32;318287;-78
2024/01/04 13:06:11;;;;;;;288.13;176.73;;;;;;;;;;4395320;32;318096;-81
2024/01/04 13:08:45;;;;;;;85.90;51.50;;;;;;;;;;4379700;32;319636;-78
2024/01/04 13:11:12;;;;;;;67.40;40.50;;;;;;;;;;4395548;32;318342;-80
2024/01/04 13:13:42;;;;;;;86.27;53.13;;;;;;;;;;4386336;32;318490;-79
2024/01/04 13:16:13;;;;;;;72.23;41.93;;;;;;;;;;4395351;32;319091;-80
2024/01/04 13:18:39;;;;;;;155.97;89.70;;;;;;;;;;4378662;32;318179;-78
2024/01/04 13:21:06;;;;;;;161.23;82.47;;;;;;;;;;4394572;32;318553;-79
2024/01/04 13:23:34;;;;;;;181.80;95.33;;;;;;;;;;4383467;32;319186;-80
2024/01/04 13:26:01;;;;;;;246.13;129.77;;;;;;;;;;4394553;32;317867;-78
2024/01/04 13:28:28;;;;;;;100.50;55.43;;;;;;;;;;4393272;32;319595;-80
2024/01/04 13:30:57;;;;;;;79.83;46.03;;;;;;;;;;4378633;32;319642;-80
2024/01/04 13:33:26;;;;;;;76.53;51.43;;;;;;;;;;4396237;32;318261;-80
2024/01/04 13:35:54;;;;;;;75.67;48.03;;;;;;;;;;4386547;32;318250;-80
2024/01/04 13:38:21;;;;;;;77.70;44.73;;;;;;;;;;4394655;32;318067;-78
2024/01/04 13:40:48;;;;;;;70.80;45.57;;;;;;;;;;4377125;32;316921;-78
2024/01/04 13:43:15;;;;;;;111.37;66.03;;;;;;;;;;4394702;32;318249;-79
2024/01/04 13:45:42;;;;;;;112.60;62.20;;;;;;;;;;4385617;32;318895;-79
2024/01/04 13:48:09;;;;;;;86.90;54.87;;;;;;;;;;4395494;32;318879;-79
2024/01/04 13:50:41;;;;;;;74.20;50.37;;;;;;;;;;4380214;32;316927;-80
2024/01/04 13:53:09;;;;;;;93.40;60.50;;;;;;;;;;4389073;32;318036;-78
2024/01/04 13:55:36;;;;;;;98.90;60.83;;;;;;;;;;4383230;32;317962;-80
2024/01/04 13:58:04;;;;;;;149.00;99.10;;;;;;;;;;4396187;32;316956;-79